Data for 09/29/2010

Time Sea-Level Adjusted Pressure Absolute Pressure Temperature Relative Humidity Dew Point   
(mb) (inHg) (mb) (inHg) (C) (F) (%) (C) (F)
00:05 1020 30.12 849 25.07 16.6 62 30 -0.7 30.7
00:10 1020 30.12 849 25.07 16 60.9 32 -0.7 30.7
00:15 1020 30.12 849 25.07 15.5 59.8 33 -0.6 30.9
00:20 1020 30.12 849 25.07 15.4 59.8 32 -1.1 30
00:25 1020 30.12 849 25.07 15.7 60.2 31 -1.3 29.6
00:30 1020 30.12 849 25.07 15.8 60.4 31 -1.4 29.4
00:35 1020 30.12 849 25.07 15.7 60.2 32 -0.9 30.4
00:40 1020 30.12 849 25.07 15.6 60 31 -1.3 29.7
00:45 1020 30.12 849 25.07 15.5 59.8 32 -0.9 30.4
00:50 1020 30.12 849 25.07 15.4 59.7 31 -1.6 29.1
00:55 1020 30.12 850 25.1 16.3 61.3 29 -1.7 28.9
01:00 1021 30.15 850 25.1 15.5 60 35 0.3 32.5
01:05 1021 30.15 850 25.1 14.6 58.4 35 -0.5 31
01:10 1021 30.15 850 25.1 14.8 58.7 32 -1.5 29.4
01:15 1021 30.15 850 25.1 15.2 59.4 33 -0.8 30.6
01:20 1021 30.15 850 25.1 15.3 59.5 33 -0.9 30.4
01:25 1021 30.15 850 25.1 15 58.9 34 -0.7 30.7
01:30 1021 30.15 850 25.1 14.8 58.7 34 -1 30.2
01:35 1021 30.15 850 25.1 15.2 59.4 32 -1.1 30.1
01:40 1021 30.15 850 25.1 15.4 59.7 32 -1 30.2
01:45 1021 30.15 850 25.1 15.8 60.4 31 -1.1 30.1
01:50 1021 30.15 850 25.1 15.8 60.5 33 -0.4 31.3
01:55 1021 30.15 850 25.1 15.4 59.6 34 -0.4 31.4
02:00 1021 30.15 850 25.1 15.1 59.1 35 -0.3 31.5
02:05 1021 30.15 850 25.1 15 59 34 -0.8 30.6
02:10 1021 30.15 850 25.1 15.3 59.5 35 0.1 32.2
02:15 1021 30.15 850 25.1 14.8 58.7 34 -0.7 30.8
02:20 1021 30.15 850 25.1 14.6 58.2 35 -0.8 30.6
02:25 1021 30.15 850 25.1 15 59 36 0.1 32.3
02:30 1021 30.15 850 25.1 14.8 58.6 34 -0.7 30.8
02:35 1021 30.15 851 25.13 15 59 35 -0.2 31.7
02:40 1021 30.15 851 25.13 15 58.9 34 -0.8 30.6
02:45 1022 30.18 851 25.13 14.8 58.6 36 0 32
02:50 1022 30.18 851 25.13 14.1 57.5 37 -0.1 31.9
02:55 1022 30.18 851 25.13 13.7 56.7 40 0.3 32.5
03:00 1022 30.18 851 25.13 13.5 56.4 40 0.3 32.5
03:05 1022 30.18 851 25.13 13.7 56.6 40 0.4 32.7
03:10 1022 30.18 851 25.13 13.5 56.3 40 0.3 32.6
03:15 1022 30.18 851 25.13 13.1 55.6 43 0.9 33.6
03:20 1022 30.18 851 25.13 12.5 54.4 46 1.1 34
03:25 1022 30.18 851 25.13 12.6 54.7 44 0.6 33
03:30 1022 30.18 851 25.13 12.7 54.8 43 0.6 33
03:35 1022 30.18 851 25.13 12.7 54.8 44 0.9 33.6
03:40 1022 30.18 851 25.13 12.4 54.4 45 0.9 33.6
03:45 1022 30.18 851 25.13 12.2 53.9 45 0.6 33.2
03:50 1022 30.18 851 25.13 12.1 53.8 45 0.7 33.2
03:55 1022 30.18 851 25.13 12 53.5 46 0.8 33.5
04:00 1022 30.18 851 25.13 11.9 53.5 47 0.9 33.7
04:05 1022 30.18 851 25.13 11.9 53.4 45 0.5 32.8
04:10 1022 30.18 851 25.13 12.2 53.9 45 0.6 33.1
04:15 1022 30.18 851 25.13 12.2 54 46 1.1 34
04:20 1022 30.18 851 25.13 11.2 52.1 53 2.1 35.8
04:25 1022 30.18 851 25.13 10.2 50.3 53 1.2 34.1
04:30 1022 30.18 851 25.13 10.4 50.7 53 1.2 34.1
04:35 1022 30.18 851 25.13 10.4 50.7 53 1.2 34.2
04:40 1022 30.18 851 25.13 10.4 50.7 53 1.3 34.3
04:45 1022 30.18 852 25.16 10.2 50.4 54 1.4 34.5
04:50 1022 30.18 852 25.16 10.2 50.3 54 1.3 34.3
04:55 1022 30.18 852 25.16 10.2 50.3 54 1.4 34.6
05:00 1022 30.18 852 25.16 10.1 50.1 54 1.3 34.3
05:05 1022 30.18 852 25.16 10.5 50.9 52 1 33.8
05:10 1023 30.21 852 25.16 11 51.9 50 1.1 33.9
05:15 1023 30.21 852 25.16 11.6 52.9 47 0.9 33.5
05:20 1023 30.21 852 25.16 12 53.5 47 1.1 34
05:25 1023 30.21 852 25.16 11.9 53.4 49 1.5 34.7
05:30 1023 30.21 852 25.16 11.6 53 49 1.2 34.2
05:35 1023 30.21 852 25.16 12 53.5 47 1.1 34.1
05:40 1023 30.21 852 25.16 12 53.5 49 1.7 35.1
05:45 1023 30.21 852 25.16 11.5 52.6 50 1.6 34.8
05:50 1023 30.21 852 25.16 11.6 52.8 49 1.3 34.3
05:55 1023 30.21 852 25.16 11.5 52.8 49 1.2 34.1
06:00 1023 30.21 852 25.16 11.6 52.8 49 1.4 34.5
06:05 1023 30.21 852 25.16 11.4 52.6 49 1.3 34.3
06:10 1023 30.21 852 25.16 11.3 52.3 50 1.4 34.5
06:15 1023 30.21 852 25.16 11.3 52.3 49 1.1 34
06:20 1023 30.21 852 25.16 11.7 53 49 1.3 34.4
06:25 1023 30.21 852 25.16 11.6 52.8 50 1.6 34.9
06:30 1023 30.21 852 25.16 11.3 52.3 51 1.5 34.6
06:35 1023 30.21 852 25.16 11 51.8 52 1.5 34.7
06:40 1023 30.21 852 25.16 11 51.8 51 1.4 34.5
06:45 1023 30.21 852 25.16 11.1 51.9 52 1.5 34.8
06:50 1023 30.21 852 25.16 10.9 51.6 52 1.5 34.7
06:55 1023 30.21 852 25.16 10.9 51.7 52 1.5 34.7
07:00 1023 30.21 852 25.16 10.9 51.7 53 1.6 35
07:05 1023 30.21 852 25.16 10.7 51.3 54 1.9 35.5
07:10 1023 30.21 852 25.16 10.3 50.5 56 2 35.6
07:15 1023 30.21 852 25.16 9.8 49.7 56 1.6 34.8
07:20 1023 30.21 852 25.16 9.8 49.6 57 1.7 35
07:25 1023 30.21 852 25.16 9.6 49.3 58 1.8 35.3
07:30 1023 30.21 852 25.16 9.5 49 58 1.7 35
07:35 1023 30.21 852 25.16 9.9 49.7 55 1.3 34.3
07:40 1023 30.21 852 25.16 10.4 50.7 54 1.6 34.9
07:45 1023 30.21 852 25.16 10.7 51.2 55 2 35.5
07:50 1023 30.21 852 25.16 10.7 51.3 55 2 35.7
07:55 1023 30.21 853 25.19 10.8 51.5 55 2.1 35.7
08:00 1023 30.21 853 25.19 11 51.8 54 2.2 36
08:05 1023 30.21 853 25.19 11.1 52 55 2.4 36.4
08:10 1023 30.21 853 25.19 11.4 52.6 52 1.9 35.5
08:15 1023 30.21 853 25.19 11.9 53.4 50 2 35.5
08:20 1023 30.21 853 25.19 12.1 53.8 50 2.1 35.8
08:25 1023 30.21 853 25.19 12.2 53.9 50 2.2 36
08:30 1024 30.24 853 25.19 12.5 54.4 50 2.3 36.1
08:35 1024 30.24 853 25.19 12.7 54.8 50 2.5 36.5
08:40 1024 30.24 853 25.19 12.9 55.1 51 2.9 37.3
08:45 1024 30.24 853 25.19 12.8 55 51 3 37.4
08:50 1024 30.24 853 25.19 12.7 54.9 50 2.7 36.9
08:55 1024 30.24 853 25.19 12.8 55.1 49 2.4 36.4
09:00 1024 30.24 853 25.19 13.1 55.6 49 2.8 37.1
09:05 1024 30.24 853 25.19 13.5 56.2 48 2.8 37.1
09:10 1024 30.24 853 25.19 13.6 56.5 50 3.4 38.1
09:15 1024 30.24 853 25.19 14.1 57.3 50 3.7 38.7
09:20 1024 30.24 853 25.19 14.1 57.4 50 3.8 38.9
09:25 1024 30.24 853 25.19 14.5 58.1 48 3.8 38.9
09:30 1024 30.24 853 25.19 15.1 59.1 45 3.3 37.9
09:35 1024 30.24 853 25.19 16 60.7 42 3.3 38
09:40 1024 30.24 853 25.19 16.6 61.8 40 3.1 37.6
09:45 1024 30.24 853 25.19 17.1 62.8 36 2.2 36
09:50 1024 30.24 853 25.19 17.6 63.6 36 2.4 36.3
09:55 1024 30.24 853 25.19 17.4 63.3 37 2.8 37.1
10:00 1024 30.24 853 25.19 17.9 64.2 36 2.8 37
10:05 1024 30.24 853 25.19 18.5 65.2 35 2.9 37.2
10:10 1024 30.24 853 25.19 18.2 64.8 37 3.3 37.9
10:15 1024 30.24 853 25.19 18.3 64.9 36 2.9 37.2
10:20 1024 30.24 853 25.19 19 66.2 33 2.6 36.6
10:25 1024 30.24 853 25.19 19.3 66.7 33 2.7 36.8
10:30 1024 30.24 853 25.19 19.9 67.7 32 2.8 37.1
10:35 1024 30.24 853 25.19 19.6 67.3 33 3.3 37.9
10:40 1024 30.24 853 25.19 19.6 67.3 32 2.8 37.1
10:45 1024 30.24 853 25.19 19.2 66.5 36 3.7 38.7
10:50 1024 30.24 853 25.19 18.7 65.6 34 2.5 36.5
10:55 1024 30.24 853 25.19 19.4 66.9 34 3.2 37.8
11:00 1024 30.24 853 25.19 19.1 66.4 35 3.3 38
11:05 1024 30.24 853 25.19 19.6 67.2 33 2.8 37.1
11:10 1024 30.24 853 25.19 20.3 68.5 32 3.3 38
11:15 1024 30.24 853 25.19 19.5 67.1 35 3.7 38.7
11:20 1024 30.24 853 25.19 19.7 67.4 33 3.2 37.8
11:25 1023 30.21 853 25.19 19.9 67.8 31 2.7 36.8
11:30 1023 30.21 853 25.19 20.5 68.8 31 3.1 37.6
11:35 1023 30.21 853 25.19 20.9 69.7 31 3.2 37.7
11:40 1023 30.21 853 25.19 21.2 70.2 30 3.1 37.5
11:45 1023 30.21 853 25.19 21.5 70.7 30 3.4 38.1
11:50 1023 30.21 852 25.16 19.8 67.6 33 3.4 38.2
11:55 1023 30.21 852 25.16 19.6 67.3 34 3.4 38.1
12:00 1023 30.21 852 25.16 20.5 68.8 30 2.6 36.8
12:05 1023 30.21 852 25.16 20.3 68.5 32 3.2 37.8
12:10 1023 30.21 852 25.16 21.1 70 29 2.7 36.9
12:15 1023 30.21 852 25.16 21.3 70.3 31 3.8 38.8
12:20 1023 30.21 852 25.16 21.7 71.1 29 3.1 37.6
12:25 1023 30.21 852 25.16 21.7 71 32 4.4 39.9
12:30 1023 30.21 852 25.16 21 69.8 31 3.3 38
12:35 1023 30.21 852 25.16 22.2 71.9 29 3.5 38.3
12:40 1023 30.21 852 25.16 22.3 72.2 29 3.5 38.2
12:45 1023 30.21 852 25.16 22.5 72.4 29 3.8 38.9
12:50 1023 30.21 852 25.16 22 71.6 31 4.2 39.5
12:55 1023 30.21 852 25.16 21.6 71 30 3.5 38.3
13:00 1023 30.21 852 25.16 21.9 71.4 29 3.1 37.6
13:05 1023 30.21 852 25.16 22 71.6 32 4.7 40.5
13:10 1023 30.21 852 25.16 20.6 69.2 34 4.3 39.8
13:15 1022 30.18 852 25.16 21.4 70.5 30 3.5 38.2
13:20 1022 30.18 852 25.16 21.7 71 32 4.3 39.7
13:25 1022 30.18 852 25.16 21.9 71.4 30 3.5 38.3
13:30 1022 30.18 852 25.16 22.3 72.2 29 3.7 38.7
13:35 1022 30.18 852 25.16 22.9 73.2 28 3.5 38.3
13:40 1022 30.18 851 25.13 23.3 74 27 3.3 38
13:45 1022 30.18 851 25.13 22.7 72.8 28 3.5 38.4
13:50 1022 30.18 851 25.13 22.9 73.2 27 3 37.3
13:55 1022 30.18 851 25.13 23.3 74 25 2.4 36.3
14:00 1022 30.18 851 25.13 23.3 73.9 26 3.1 37.5
14:05 1022 30.18 851 25.13 23.7 74.6 27 3.5 38.3
14:10 1022 30.18 851 25.13 23.6 74.5 26 3.3 37.9
14:15 1022 30.18 851 25.13 23.5 74.3 26 3 37.5
14:20 1022 30.18 851 25.13 23.2 73.8 25 2.3 36.2
14:25 1022 30.18 851 25.13 23.7 74.6 26 3.3 38
14:30 1022 30.18 851 25.13 23.7 74.6 26 3.1 37.6
14:35 1022 30.18 851 25.13 23.3 73.9 25 2.4 36.4
14:40 1022 30.18 851 25.13 24.1 75.4 24 2.5 36.6
14:45 1022 30.18 851 25.13 23.3 73.9 27 3.3 37.9
14:50 1022 30.18 851 25.13 23.6 74.5 25 2.5 36.4
14:55 1022 30.18 851 25.13 24 75.2 25 2.8 37.1
15:00 1022 30.18 851 25.13 24 75.2 24 2.5 36.5
15:05 1021 30.15 851 25.13 23.1 73.7 25 2.2 35.9
15:10 1021 30.15 851 25.13 22.5 72.6 24 1.4 34.5
15:15 1021 30.15 851 25.13 23.1 73.5 26 2.5 36.5
15:20 1021 30.15 851 25.13 22.9 73.2 24 1.2 34.2
15:25 1021 30.15 851 25.13 23.1 73.7 25 2.4 36.3
15:30 1021 30.15 851 25.13 22.6 72.8 25 1.6 35
15:35 1021 30.15 850 25.1 23.5 74.2 24 1.7 35
15:40 1021 30.15 850 25.1 24.2 75.6 22 1.6 34.9
15:45 1021 30.15 850 25.1 24.8 76.6 22 1.6 34.9
15:50 1021 30.15 850 25.1 24.8 76.6 23 2.3 36.2
15:55 1021 30.15 850 25.1 24.5 76 24 2.7 36.8
16:00 1021 30.15 850 25.1 24.3 75.8 23 2.1 35.7
16:05 1021 30.15 850 25.1 24.6 76.2 23 2.2 36
16:10 1021 30.15 850 25.1 24.4 76 23 2.4 36.4
16:15 1021 30.15 850 25.1 24.6 76.3 24 2.7 36.9
16:20 1021 30.15 850 25.1 24.1 75.4 23 2.2 35.9
16:25 1021 30.15 850 25.1 23.2 73.8 24 1.9 35.3
16:30 1021 30.15 850 25.1 24 75.3 24 2.2 35.9
16:35 1021 30.15 850 25.1 24.4 75.9 23 2.4 36.3
16:40 1021 30.15 850 25.1 24.3 75.7 23 1.9 35.5
16:45 1021 30.15 850 25.1 24.1 75.4 22 1.1 34.1
16:50 1021 30.15 850 25.1 24.3 75.7 21 0.9 33.6
16:55 1021 30.15 850 25.1 24.6 76.2 20 0.1 32.3
17:00 1021 30.15 850 25.1 24.7 76.4 21 0.8 33.5
17:05 1021 30.15 850 25.1 24.8 76.6 20 0.5 32.9
17:10 1021 30.15 850 25.1 24.6 76.2 21 1 33.8
17:15 1021 30.15 850 25.1 23.9 75.1 20 0.1 32.2
17:20 1021 30.15 850 25.1 23.4 74.1 25 2.6 36.7
17:25 1021 30.15 850 25.1 23.9 74.9 21 0.4 32.8
17:30 1021 30.15 850 25.1 24.2 75.6 21 0.5 32.8
17:35 1021 30.15 850 25.1 23.8 74.8 22 1 33.7
17:40 1021 30.15 850 25.1 23.4 74.1 20 -0.3 31.4
17:45 1021 30.15 850 25.1 23 73.3 22 0.2 32.4
17:50 1021 30.15 850 25.1 22.9 73.2 21 -0.4 31.2
17:55 1021 30.15 850 25.1 23.1 73.5 21 -0.5 31.2
18:00 1021 30.15 850 25.1 23.5 74.2 21 -0.1 31.9
18:05 1021 30.15 850 25.1 23.7 74.7 20 -0.2 31.7
18:10 1021 30.15 850 25.1 23.7 74.6 20 -0.1 31.9
18:15 1021 30.15 850 25.1 23.6 74.5 21 0.2 32.4
18:20 1021 30.15 850 25.1 23.5 74.4 23 1.2 34.1
18:25 1021 30.15 850 25.1 23.4 74.1 22 0.7 33.2
18:30 1021 30.15 850 25.1 23.3 73.9 24 1.5 34.7
18:35 1021 30.15 850 25.1 23.2 73.7 24 1.4 34.6
18:40 1021 30.15 850 25.1 22.7 72.8 24 1.3 34.4
18:45 1021 30.15 850 25.1 22.3 72.1 24 1.2 34.2
18:50 1021 30.15 850 25.1 21.7 71.1 30 3.5 38.4
18:55 1021 30.15 850 25.1 20.1 68.2 36 4.8 40.7
19:00 1021 30.15 850 25.1 19.6 67.3 35 3.9 39.1
19:05 1021 30.15 850 25.1 19.5 67.2 38 5 40.9
19:10 1021 30.15 850 25.1 19.2 66.5 36 3.8 38.9
19:15 1021 30.15 850 25.1 18.8 65.9 33 2.5 36.4
19:20 1021 30.15 850 25.1 18.7 65.6 44 6.2 43.1
19:25 1021 30.15 850 25.1 17.9 64.2 45 5.9 42.6
19:30 1021 30.15 850 25.1 17.4 63.4 42 4.5 40
19:35 1021 30.15 850 25.1 17.2 63 43 4.5 40.2
19:40 1021 30.15 850 25.1 16.9 62.3 45 4.9 40.8
19:45 1021 30.15 850 25.1 16.4 61.5 47 5.1 41.1
19:50 1021 30.15 850 25.1 16.4 61.5 45 4.5 40
19:55 1021 30.15 850 25.1 16.6 61.9 44 4.6 40.2
20:00 1021 30.15 850 25.1 17.1 62.8 43 4.7 40.5
20:05 1021 30.15 850 25.1 17.3 63.2 43 4.8 40.7
20:10 1021 30.15 850 25.1 17.4 63.3 44 5.1 41.2
20:15 1021 30.15 850 25.1 17.4 63.3 44 5.2 41.4
20:20 1021 30.15 850 25.1 17.2 63 45 5.5 41.8
20:25 1021 30.15 851 25.13 17 62.6 46 5.5 41.9
20:30 1021 30.15 851 25.13 17.1 62.8 46 5.5 41.8
20:35 1021 30.15 851 25.13 17.2 62.9 46 5.5 42
20:40 1021 30.15 851 25.13 17.3 63.1 45 5.5 41.9
20:45 1021 30.15 851 25.13 17.2 63 46 5.6 42
20:50 1021 30.15 851 25.13 17.1 62.8 46 5.5 41.9
20:55 1021 30.15 851 25.13 17.1 62.7 46 5.5 42
21:00 1021 30.15 851 25.13 17 62.6 47 5.7 42.2
21:05 1021 30.15 851 25.13 16.9 62.4 47 5.7 42.3
21:10 1021 30.15 851 25.13 16.8 62.2 48 5.8 42.4
21:15 1021 30.15 851 25.13 16.6 62 48 5.7 42.3
21:20 1022 30.18 851 25.13 16.6 61.9 49 5.8 42.5
21:25 1022 30.18 851 25.13 16.5 61.8 49 5.8 42.4
21:30 1022 30.18 851 25.13 16.4 61.6 49 5.8 42.4
21:35 1022 30.18 851 25.13 16.3 61.3 50 5.9 42.5
21:40 1022 30.18 851 25.13 16.1 61 50 5.9 42.5
21:45 1022 30.18 851 25.13 16 60.9 50 5.7 42.3
21:50 1022 30.18 851 25.13 16 60.8 50 5.7 42.2
21:55 1022 30.18 851 25.13 16 60.8 50 5.8 42.4
22:00 1022 30.18 851 25.13 15.9 60.6 51 5.8 42.4
22:05 1022 30.18 851 25.13 15.8 60.5 51 5.7 42.3
22:10 1022 30.18 851 25.13 15.7 60.2 52 5.8 42.4
22:15 1022 30.18 851 25.13 15.6 60 51 5.7 42.3
22:20 1022 30.18 851 25.13 15.5 59.9 52 5.8 42.5
22:25 1022 30.18 851 25.13 15.4 59.7 52 5.7 42.3
22:30 1022 30.18 851 25.13 15.3 59.5 53 5.7 42.3
22:35 1022 30.18 851 25.13 15.2 59.4 53 5.8 42.4
22:40 1022 30.18 851 25.13 15.1 59.2 53 5.8 42.4
22:45 1022 30.18 851 25.13 15 59 53 5.7 42.3
22:50 1022 30.18 851 25.13 14.8 58.7 54 5.7 42.2
22:55 1022 30.18 851 25.13 14.8 58.6 54 5.6 42.2
23:00 1022 30.18 851 25.13 14.7 58.5 54 5.6 42.1
23:05 1022 30.18 851 25.13 14.8 58.6 54 5.6 42
23:10 1022 30.18 851 25.13 14.8 58.6 54 5.5 41.9
23:15 1022 30.18 851 25.13 14.7 58.5 54 5.6 42.1
23:20 1022 30.18 851 25.13 14.6 58.3 54 5.5 41.9
23:25 1022 30.18 851 25.13 14.6 58.3 54 5.4 41.8
23:30 1022 30.18 851 25.13 14.5 58.2 54 5.5 42
23:35 1022 30.18 851 25.13 14.4 57.9 55 5.5 41.9
23:40 1022 30.18 851 25.13 14.4 57.8 55 5.4 41.8
23:45 1022 30.18 851 25.13 14.3 57.8 55 5.5 42
23:50 1022 30.18 851 25.13 14.2 57.6 55 5.5 41.9
23:55 1022 30.18 851 25.13 14.2 57.5 55 5.4 41.8
24:00 1022 30.18 851 25.13 14.1 57.5 55 5.4 41.7